Beaufort, South Carolina
Current Conditions -  °F | °C
As of 6:35 PM on Tuesday 25 Nov 2014 (Local Time) from KARW Reporting Station
Drizzle Drizzle  
Wind Chill: 63°   Ceiling: Unl
Heat Index: 63°   Visibility: 7mi
Dew Point: 63°   Wind: 6mph
Humidity: 100%   Direction: 40°NE
Pressure: 29.99"   Gusts: NA
Location:  32.43°N, 80.67°W
Report Text: KARW 252335Z AUTO 04005KT 7SM -DZ SCT005 SCT009 SCT050 17/17 A2999 RMK AO2 LTG DSNT SW
Loading
Personal Weather Stations






























Interactive Weather Map New forecast layout! Learn more

10-Day Weather Forecast

Advertisements
Track Severe Weather on mobile